createdAt,value
2022-08-18T00:02:37.631Z,4.38
2022-08-18T00:07:42.328Z,3.80
2022-08-18T00:12:49.464Z,3.83
2022-08-18T00:17:50.094Z,4.07
2022-08-18T00:22:51.697Z,4.70
2022-08-18T00:27:53.897Z,3.80
2022-08-18T00:32:57.015Z,4.32
2022-08-18T00:37:59.506Z,3.95
2022-08-18T00:43:04.057Z,4.07
2022-08-18T00:48:06.539Z,3.83
2022-08-18T00:53:12.529Z,4.30
2022-08-18T00:58:21.872Z,4.53
2022-08-18T01:03:25.033Z,4.75
2022-08-18T01:08:29.173Z,4.40
2022-08-18T01:13:33.610Z,4.50
2022-08-18T01:18:52.283Z,4.47
2022-08-18T01:23:55.572Z,3.92
2022-08-18T01:28:56.238Z,4.65
2022-08-18T01:33:57.245Z,4.78
2022-08-18T01:38:59.283Z,4.80
2022-08-18T01:44:00.683Z,4.38
2022-08-18T01:49:02.008Z,4.53
2022-08-18T01:54:05.420Z,4.43
2022-08-18T01:59:06.977Z,4.32
2022-08-18T02:04:33.209Z,4.32
2022-08-18T02:09:30.194Z,4.35
2022-08-18T02:14:31.302Z,4.70
2022-08-18T02:19:35.175Z,4.65
2022-08-18T02:24:37.377Z,4.72
2022-08-18T02:29:38.386Z,4.45
2022-08-18T02:34:38.995Z,4.60
2022-08-18T02:39:41.361Z,4.85
2022-08-18T02:44:42.200Z,4.95
2022-08-18T02:49:42.782Z,4.38
2022-08-18T02:54:44.952Z,4.63
2022-08-18T02:59:46.910Z,4.90
2022-08-18T03:04:49.385Z,5.00
2022-08-18T03:09:51.409Z,5.03
2022-08-18T03:14:52.083Z,5.13
2022-08-18T03:19:52.933Z,4.57
2022-08-18T03:24:56.845Z,5.10
2022-08-18T03:29:58.701Z,4.65
2022-08-18T03:34:59.729Z,4.97
2022-08-18T03:40:01.776Z,4.95
2022-08-18T03:45:13.015Z,5.15
2022-08-18T03:50:19.565Z,5.07
2022-08-18T03:55:21.706Z,5.18
2022-08-18T04:00:23.558Z,4.80
2022-08-18T04:05:24.149Z,5.15
2022-08-18T04:10:26.583Z,5.18
2022-08-18T04:15:27.277Z,5.97
2022-08-18T04:20:28.591Z,4.75
2022-08-18T04:25:33.169Z,5.20
2022-08-18T04:30:34.030Z,6.05
2022-08-18T04:35:34.627Z,5.55
2022-08-18T04:40:37.507Z,5.25
2022-08-18T04:45:40.103Z,5.78
2022-08-18T04:50:40.786Z,5.35
2022-08-18T04:55:49.313Z,5.63
2022-08-18T05:00:58.469Z,5.43
2022-08-18T05:06:00.394Z,5.53
2022-08-18T05:11:04.258Z,5.35
2022-08-18T05:16:11.117Z,5.38
2022-08-18T05:21:15.675Z,5.65
2022-08-18T05:26:19.925Z,5.10
2022-08-18T05:31:24.309Z,5.05
2022-08-18T05:36:47.735Z,5.55
2022-08-18T05:41:52.816Z,5.78
2022-08-18T05:46:56.986Z,6.43
2022-08-18T05:52:01.965Z,5.65
2022-08-18T05:57:08.980Z,5.47
2022-08-18T06:02:15.968Z,5.15
2022-08-18T06:07:19.513Z,5.57
2022-08-18T06:12:33.480Z,5.85
2022-08-18T06:17:58.425Z,5.90
2022-08-18T06:23:14.827Z,5.65
2022-08-18T06:28:18.144Z,5.22
2022-08-18T06:33:43.698Z,5.43
2022-08-18T06:38:58.287Z,5.97
2022-08-18T06:44:04.010Z,5.72
2022-08-18T06:49:08.495Z,5.20
2022-08-18T06:54:27.974Z,6.20
2022-08-18T06:59:32.041Z,5.60
2022-08-18T07:04:44.290Z,5.55
2022-08-18T07:09:45.477Z,5.28
2022-08-18T07:14:50.481Z,4.95
2022-08-18T07:20:03.577Z,5.07
2022-08-18T07:25:06.054Z,4.85
2022-08-18T07:30:15.608Z,5.75
2022-08-18T07:35:39.118Z,5.13
2022-08-18T07:40:47.074Z,5.10
2022-08-18T07:45:49.048Z,5.07
2022-08-18T07:51:04.151Z,5.40
2022-08-18T07:56:19.610Z,5.05
2022-08-18T08:01:29.694Z,5.18
2022-08-18T08:06:40.268Z,5.10
2022-08-18T08:11:52.287Z,5.10
2022-08-18T08:17:02.900Z,4.95
2022-08-18T08:22:10.261Z,5.03
2022-08-18T08:27:18.832Z,5.85
2022-08-18T08:32:31.933Z,5.53
2022-08-18T08:37:41.786Z,5.18
2022-08-18T08:42:48.838Z,6.13
2022-08-18T08:48:08.503Z,5.90
2022-08-18T08:53:20.546Z,5.13
2022-08-18T08:58:26.503Z,5.55
2022-08-18T09:03:39.644Z,5.63
2022-08-18T09:08:53.038Z,5.32
2022-08-18T09:14:25.014Z,5.88
2022-08-18T09:19:49.045Z,5.13
2022-08-18T09:24:53.281Z,5.65
2022-08-18T09:29:57.525Z,5.35
2022-08-18T09:35:12.746Z,5.30
2022-08-18T09:41:01.073Z,5.25
2022-08-18T09:45:58.559Z,5.22
2022-08-18T09:51:23.542Z,5.47
2022-08-18T09:57:16.570Z,6.45
2022-08-18T10:02:56.241Z,5.40
2022-08-18T10:08:30.722Z,5.38
2022-08-18T10:19:10.576Z,5.43
2022-08-18T10:24:36.655Z,5.55
2022-08-18T10:29:48.330Z,5.70
2022-08-18T10:34:52.886Z,5.07
2022-08-18T10:39:59.126Z,5.05
2022-08-18T10:45:07.757Z,5.57
2022-08-18T10:50:21.466Z,5.25
2022-08-18T10:55:54.749Z,4.88
2022-08-18T11:01:08.960Z,4.13
2022-08-18T11:06:17.841Z,4.60
2022-08-18T11:11:34.661Z,4.78
2022-08-18T11:16:55.978Z,4.28
2022-08-18T11:21:57.184Z,4.43
2022-08-18T11:27:02.011Z,4.50
2022-08-18T11:37:48.662Z,4.80
2022-08-18T11:42:58.492Z,4.68
2022-08-18T11:53:44.196Z,5.13
2022-08-18T11:58:50.505Z,4.57
2022-08-18T12:03:51.486Z,4.43
2022-08-18T12:08:59.142Z,5.20
2022-08-18T12:19:30.660Z,5.68
2022-08-18T12:29:58.264Z,5.43
2022-08-18T12:35:03.525Z,4.97
2022-08-18T12:40:10.442Z,5.00
2022-08-18T12:45:13.042Z,4.90
2022-08-18T12:50:13.769Z,5.53
2022-08-18T12:55:21.347Z,4.75
2022-08-18T13:00:28.890Z,5.57
2022-08-18T13:05:30.269Z,5.18
2022-08-18T13:10:42.893Z,5.35
2022-08-18T13:15:57.749Z,5.25
2022-08-18T13:21:00.207Z,4.70
2022-08-18T13:26:03.290Z,5.68
2022-08-18T13:31:06.022Z,5.85
2022-08-18T13:36:07.196Z,5.60
2022-08-18T13:41:08.696Z,6.20
2022-08-18T13:46:19.758Z,5.30
2022-08-18T13:51:32.068Z,6.03
2022-08-18T13:56:32.657Z,5.15
2022-08-18T14:01:44.642Z,5.05
2022-08-18T14:06:57.190Z,5.90
2022-08-18T14:11:59.212Z,5.97
2022-08-18T14:17:01.913Z,5.70
2022-08-18T14:22:20.087Z,5.95
2022-08-18T14:27:25.686Z,6.72
2022-08-18T14:32:29.990Z,5.63
2022-08-18T14:37:31.165Z,6.65
2022-08-18T14:42:41.749Z,6.88
2022-08-18T14:47:58.016Z,6.47
2022-08-18T14:52:59.101Z,6.70
2022-08-18T14:57:59.863Z,6.68
2022-08-18T15:03:01.810Z,7.43
2022-08-18T15:08:04.693Z,7.43
2022-08-18T15:13:05.447Z,6.60
2022-08-18T15:18:08.069Z,7.13
2022-08-18T15:23:36.405Z,7.18
2022-08-18T15:28:38.971Z,7.10
2022-08-18T15:33:42.120Z,6.53
2022-08-18T15:38:42.734Z,6.93
2022-08-18T15:43:46.025Z,7.05
2022-08-18T15:48:48.390Z,6.22
2022-08-18T15:53:49.131Z,7.43
2022-08-18T15:58:50.407Z,7.07
2022-08-18T16:03:54.515Z,5.68
2022-08-18T16:08:55.512Z,7.05
2022-08-18T16:13:58.624Z,7.07
2022-08-18T16:19:01.897Z,7.20
2022-08-18T16:24:02.622Z,7.43
2022-08-18T16:29:03.267Z,7.28
2022-08-18T16:34:05.837Z,6.80
2022-08-18T16:39:06.536Z,7.00
2022-08-18T16:44:07.588Z,7.72
2022-08-18T16:49:10.261Z,8.65
2022-08-18T16:54:10.864Z,7.55
2022-08-18T17:04:35.945Z,6.60
2022-08-18T17:09:37.222Z,7.68
2022-08-18T17:14:39.138Z,7.68
2022-08-18T17:19:41.098Z,7.22
2022-08-18T17:24:44.098Z,7.40
2022-08-18T17:30:00.472Z,6.90
2022-08-18T17:35:05.951Z,8.25
2022-08-18T17:40:14.310Z,7.40
2022-08-18T17:45:21.624Z,7.88
2022-08-18T17:50:46.787Z,7.45
2022-08-18T17:55:51.527Z,7.50
2022-08-18T18:00:52.614Z,8.20
2022-08-18T18:06:04.058Z,6.97
2022-08-18T18:11:12.534Z,7.43
2022-08-18T18:16:28.033Z,6.75
2022-08-18T18:22:01.035Z,7.07
2022-08-18T18:26:54.218Z,6.82
2022-08-18T18:32:01.946Z,7.75
2022-08-18T18:37:04.024Z,8.02
2022-08-18T18:42:17.624Z,8.73
2022-08-18T18:47:38.506Z,7.85
2022-08-18T18:52:47.962Z,7.88
2022-08-18T18:58:00.014Z,7.88
2022-08-18T19:03:07.680Z,10.30
2022-08-18T19:08:20.087Z,8.57
2022-08-18T19:13:32.648Z,9.10
2022-08-18T19:18:40.121Z,8.38
2022-08-18T19:23:46.446Z,7.18
2022-08-18T19:29:11.933Z,8.63
2022-08-18T19:34:16.369Z,7.38
2022-08-18T19:39:28.208Z,7.82
2022-08-18T19:44:35.659Z,8.43
2022-08-18T19:49:42.536Z,8.68
2022-08-18T19:54:57.803Z,7.72
2022-08-18T20:00:13.038Z,8.65
2022-08-18T20:05:22.763Z,8.68
2022-08-18T20:10:45.606Z,8.43
2022-08-18T20:16:12.024Z,9.98
2022-08-18T20:21:39.898Z,9.38
2022-08-18T20:26:47.008Z,9.55
2022-08-18T20:32:00.281Z,10.13
2022-08-18T20:37:08.162Z,10.02
2022-08-18T20:42:55.863Z,9.30
2022-08-18T20:48:17.377Z,9.48
2022-08-18T20:53:36.143Z,9.98
2022-08-18T20:58:45.869Z,9.32
2022-08-18T21:03:47.103Z,9.75
2022-08-18T21:08:51.049Z,9.60
2022-08-18T21:13:55.327Z,9.35
2022-08-18T21:19:01.173Z,9.88
2022-08-18T21:24:03.634Z,10.45
2022-08-18T21:29:09.013Z,9.98
2022-08-18T21:34:12.672Z,9.60
2022-08-18T21:39:17.354Z,10.88
2022-08-18T21:44:24.270Z,9.93
2022-08-18T21:49:27.115Z,10.50
2022-08-18T21:54:34.586Z,10.40
2022-08-18T21:59:37.383Z,9.82
2022-08-18T22:04:46.297Z,11.30
2022-08-18T22:10:16.809Z,10.77
2022-08-18T22:15:21.597Z,10.82
2022-08-18T22:20:47.359Z,10.88
2022-08-18T22:25:48.959Z,10.88
2022-08-18T22:30:50.922Z,10.38
2022-08-18T22:35:55.000Z,11.65
2022-08-18T22:40:55.681Z,10.90
2022-08-18T22:45:57.636Z,11.57
2022-08-18T22:50:58.381Z,11.07
2022-08-18T22:56:05.880Z,12.20
2022-08-18T23:01:10.378Z,11.75
2022-08-18T23:06:11.278Z,11.52
2022-08-18T23:11:12.598Z,11.07
2022-08-18T23:16:31.719Z,11.85
2022-08-18T23:21:34.772Z,11.60
2022-08-18T23:26:36.493Z,11.68
2022-08-18T23:31:39.960Z,11.20
2022-08-18T23:36:45.294Z,11.85
2022-08-18T23:41:46.486Z,11.32
2022-08-18T23:46:50.848Z,11.60
2022-08-18T23:51:55.518Z,10.73
2022-08-18T23:56:56.123Z,11.55
